createdAt,value
2022-08-22T00:01:53.747Z,3.05
2022-08-22T00:02:48.331Z,22.60
2022-08-22T00:02:54.107Z,12.32
2022-08-22T00:02:58.816Z,2.80
2022-08-22T00:02:59.383Z,2.47
2022-08-22T00:03:08.817Z,13.35
2022-08-22T00:04:29.488Z,2.78
2022-08-22T00:07:18.718Z,3.03
2022-08-22T00:09:57.387Z,5.03
2022-08-22T00:12:31.532Z,2.58
2022-08-22T00:14:59.884Z,4.15
2022-08-22T00:17:45.921Z,2.88
2022-08-22T00:20:20.677Z,2.13
2022-08-22T00:23:14.009Z,2.03
2022-08-22T00:26:01.530Z,2.67
2022-08-22T00:28:29.244Z,2.60
2022-08-22T00:31:01.363Z,1.52
2022-08-22T00:33:40.361Z,1.95
2022-08-22T00:36:14.605Z,1.30
2022-08-22T00:38:46.021Z,1.88
2022-08-22T00:43:44.539Z,1.83
2022-08-22T00:46:38.461Z,1.80
2022-08-22T00:49:23.467Z,1.20
2022-08-22T00:52:07.595Z,2.00
2022-08-22T00:54:35.343Z,1.23
2022-08-22T00:57:06.445Z,3.03
2022-08-22T00:59:34.119Z,2.35
2022-08-22T01:02:11.168Z,3.28
2022-08-22T01:05:02.133Z,1.73
2022-08-22T01:07:38.307Z,1.55
2022-08-22T01:10:15.452Z,3.15
2022-08-22T01:12:48.718Z,2.53
2022-08-22T01:15:21.354Z,3.15
2022-08-22T01:18:07.688Z,1.73
2022-08-22T01:20:35.403Z,1.58
2022-08-22T01:23:21.572Z,1.65
2022-08-22T01:26:07.799Z,2.50
2022-08-22T01:28:37.845Z,2.20
2022-08-22T01:31:17.576Z,2.17
2022-08-22T01:34:04.030Z,2.15
2022-08-22T01:36:51.355Z,0.90
2022-08-22T01:39:34.241Z,2.00
2022-08-22T01:42:25.033Z,2.20
2022-08-22T01:45:19.465Z,0.40
2022-08-22T01:47:54.184Z,0.82
2022-08-22T01:50:35.234Z,1.75
2022-08-22T01:53:05.990Z,0.75
2022-08-22T01:55:34.788Z,5.97
2022-08-22T01:58:14.765Z,0.50
2022-08-22T02:00:54.659Z,0.95
2022-08-22T02:03:26.870Z,2.03
2022-08-22T02:06:00.861Z,1.30
2022-08-22T02:08:31.356Z,2.40
2022-08-22T02:11:06.955Z,1.17
2022-08-22T02:13:46.513Z,1.70
2022-08-22T02:16:27.829Z,1.75
2022-08-22T02:19:01.755Z,1.58
2022-08-22T02:21:40.981Z,1.75
2022-08-22T02:24:26.937Z,1.35
2022-08-22T02:27:06.254Z,1.30
2022-08-22T02:29:42.466Z,1.15
2022-08-22T02:32:28.598Z,1.67
2022-08-22T02:35:03.752Z,1.35
2022-08-22T02:37:31.453Z,3.78
2022-08-22T02:40:05.750Z,1.55
2022-08-22T02:42:40.089Z,2.20
2022-08-22T02:45:10.493Z,2.97
2022-08-22T02:47:59.406Z,1.98
2022-08-22T02:50:34.291Z,3.05
2022-08-22T02:53:21.191Z,4.22
2022-08-22T02:55:52.848Z,4.25
2022-08-22T02:58:25.868Z,4.78
2022-08-22T03:00:59.624Z,6.68
2022-08-22T03:03:29.958Z,6.25
2022-08-22T03:06:01.733Z,6.70
2022-08-22T03:08:32.077Z,6.95
2022-08-22T03:11:18.624Z,9.07
2022-08-22T03:13:55.936Z,10.35
2022-08-22T03:16:26.696Z,9.07
2022-08-22T03:18:58.577Z,9.85
2022-08-22T03:21:33.761Z,14.00
2022-08-22T03:24:18.193Z,13.50
2022-08-22T03:26:45.905Z,13.80
2022-08-22T03:29:17.926Z,14.65
2022-08-22T03:32:06.558Z,12.35
2022-08-22T03:34:34.577Z,14.05
2022-08-22T03:37:12.046Z,19.58
2022-08-22T03:39:47.269Z,9.77
2022-08-22T03:42:15.079Z,13.05
2022-08-22T03:45:01.398Z,12.50
2022-08-22T03:47:35.750Z,9.30
2022-08-22T03:50:07.239Z,10.60
2022-08-22T03:52:34.868Z,10.80
2022-08-22T03:55:02.406Z,9.30
2022-08-22T03:57:46.948Z,8.15
2022-08-22T04:00:18.462Z,8.98
2022-08-22T04:02:47.070Z,7.05
2022-08-22T04:05:33.802Z,8.18
2022-08-22T04:08:25.574Z,5.85
2022-08-22T04:11:03.750Z,6.05
2022-08-22T04:13:50.290Z,6.72
2022-08-22T04:16:36.632Z,5.32
2022-08-22T04:19:22.902Z,6.30
2022-08-22T04:21:53.716Z,5.00
2022-08-22T04:24:22.475Z,4.50
2022-08-22T04:26:56.448Z,8.30
2022-08-22T04:29:24.236Z,9.75
2022-08-22T04:31:58.026Z,4.60
2022-08-22T04:34:29.643Z,4.32
2022-08-22T04:37:00.599Z,5.85
2022-08-22T04:39:38.570Z,6.03
2022-08-22T04:42:31.184Z,4.45
2022-08-22T04:44:56.114Z,6.00
2022-08-22T04:47:39.863Z,5.30
2022-08-22T04:50:27.954Z,7.97
2022-08-22T04:53:02.919Z,4.30
2022-08-22T04:55:49.984Z,6.28
2022-08-22T04:58:20.965Z,5.88
2022-08-22T05:01:00.074Z,4.60
2022-08-22T05:03:29.643Z,6.68
2022-08-22T05:05:59.939Z,6.95
2022-08-22T05:08:31.056Z,5.15
2022-08-22T05:10:59.401Z,5.35
2022-08-22T05:13:32.741Z,5.18
2022-08-22T05:16:04.417Z,4.97
2022-08-22T05:18:42.291Z,4.63
2022-08-22T05:21:11.513Z,4.72
2022-08-22T05:23:50.480Z,8.27
2022-08-22T05:26:19.722Z,5.20
2022-08-22T05:29:02.898Z,4.38
2022-08-22T05:31:34.182Z,6.25
2022-08-22T05:34:22.016Z,5.82
2022-08-22T05:36:52.832Z,4.07
2022-08-22T05:39:22.412Z,5.32
2022-08-22T05:41:55.456Z,6.90
2022-08-22T05:44:33.721Z,6.50
2022-08-22T05:47:01.599Z,6.10
2022-08-22T05:49:35.936Z,8.60
2022-08-22T05:52:32.366Z,8.60
2022-08-22T05:55:04.265Z,9.65
2022-08-22T05:57:34.745Z,8.95
2022-08-22T06:00:08.574Z,6.60
2022-08-22T06:02:48.696Z,7.93
2022-08-22T06:05:22.308Z,8.73
2022-08-22T06:07:50.992Z,6.78
2022-08-22T06:10:18.684Z,10.07
2022-08-22T06:12:56.212Z,9.93
2022-08-22T06:15:32.871Z,7.75
2022-08-22T06:18:02.203Z,6.80
2022-08-22T06:20:59.668Z,6.78
2022-08-22T06:23:28.791Z,6.65
2022-08-22T06:26:01.100Z,8.02
2022-08-22T06:28:32.813Z,7.18
2022-08-22T06:31:02.255Z,6.68
2022-08-22T06:33:31.753Z,6.68
2022-08-22T06:36:34.096Z,8.85
2022-08-22T06:39:20.652Z,9.10
2022-08-22T06:41:53.821Z,6.90
2022-08-22T06:44:24.650Z,9.35
2022-08-22T06:46:54.721Z,5.72
2022-08-22T06:49:23.858Z,5.80
2022-08-22T06:51:51.786Z,5.30
2022-08-22T06:54:22.956Z,5.25
2022-08-22T06:56:52.549Z,4.75
2022-08-22T06:59:24.029Z,6.25
2022-08-22T07:04:23.858Z,5.65
2022-08-22T07:06:52.461Z,6.55
2022-08-22T07:09:23.494Z,6.95
2022-08-22T07:11:52.225Z,7.03
2022-08-22T07:14:25.859Z,6.65
2022-08-22T07:16:57.007Z,6.28
2022-08-22T07:19:24.549Z,5.00
2022-08-22T07:21:52.380Z,6.47
2022-08-22T07:24:23.406Z,4.10
2022-08-22T07:27:14.578Z,7.45
2022-08-22T07:29:44.291Z,5.85
2022-08-22T07:32:41.999Z,5.60
2022-08-22T07:35:18.580Z,7.03
2022-08-22T07:38:07.901Z,6.53
2022-08-22T07:40:46.695Z,5.22
2022-08-22T07:43:30.008Z,5.13
2022-08-22T07:46:06.720Z,5.45
2022-08-22T07:48:44.714Z,6.15
2022-08-22T07:51:31.485Z,5.93
2022-08-22T07:54:01.071Z,6.40
2022-08-22T07:56:35.199Z,5.82
2022-08-22T07:59:17.635Z,6.88
2022-08-22T08:01:47.519Z,7.28
2022-08-22T08:04:17.918Z,7.15
2022-08-22T08:06:49.208Z,5.18
2022-08-22T08:09:17.525Z,4.93
2022-08-22T08:11:45.474Z,5.53
2022-08-22T08:14:15.375Z,6.28
2022-08-22T08:16:49.281Z,6.72
2022-08-22T08:19:18.909Z,7.10
2022-08-22T08:21:51.550Z,7.45
2022-08-22T08:24:21.676Z,8.57
2022-08-22T08:27:13.488Z,9.45
2022-08-22T08:29:43.407Z,11.98
2022-08-22T08:32:11.894Z,7.65
2022-08-22T08:34:40.153Z,8.63
2022-08-22T08:37:28.896Z,8.90
2022-08-22T08:39:58.738Z,9.77
2022-08-22T08:43:00.561Z,8.93
2022-08-22T08:45:37.198Z,7.32
2022-08-22T08:48:08.998Z,8.40
2022-08-22T08:53:06.897Z,8.02
2022-08-22T08:55:46.998Z,7.93
2022-08-22T09:01:11.458Z,6.50
2022-08-22T09:03:58.007Z,8.07
2022-08-22T09:06:42.524Z,6.13
2022-08-22T09:09:19.098Z,6.53
2022-08-22T09:12:03.620Z,6.72
2022-08-22T09:14:32.074Z,7.55
2022-08-22T09:17:21.214Z,5.38
2022-08-22T09:19:52.059Z,5.40
2022-08-22T09:22:50.840Z,5.82
2022-08-22T09:25:23.609Z,7.35
2022-08-22T09:27:54.756Z,6.15
2022-08-22T09:30:28.859Z,6.70
2022-08-22T09:33:18.384Z,5.38
2022-08-22T09:36:15.247Z,6.63
2022-08-22T09:38:56.435Z,6.22
2022-08-22T09:41:42.587Z,5.53
2022-08-22T09:44:19.801Z,5.30
2022-08-22T09:46:50.406Z,4.28
2022-08-22T09:49:25.043Z,4.45
2022-08-22T09:52:14.380Z,3.05
2022-08-22T09:54:54.175Z,2.80
2022-08-22T09:57:24.899Z,3.83
2022-08-22T10:00:11.531Z,3.63
2022-08-22T10:02:50.356Z,3.60
2022-08-22T10:05:40.263Z,3.15
2022-08-22T10:08:11.356Z,3.55
2022-08-22T10:10:46.685Z,4.93
2022-08-22T10:13:38.391Z,2.60
2022-08-22T10:18:33.874Z,4.25
2022-08-22T10:21:04.624Z,3.13
2022-08-22T10:23:37.494Z,3.67
2022-08-22T10:26:25.870Z,3.20
2022-08-22T10:29:03.481Z,5.60
2022-08-22T10:31:42.850Z,3.88
2022-08-22T10:34:29.403Z,6.00
2022-08-22T10:37:17.214Z,3.38
2022-08-22T10:39:51.469Z,3.47
2022-08-22T10:42:28.649Z,2.38
2022-08-22T10:45:36.814Z,4.57
2022-08-22T10:50:36.575Z,1.80
2022-08-22T10:53:28.937Z,2.55
2022-08-22T10:56:01.392Z,4.40
2022-08-22T10:58:32.415Z,4.00
2022-08-22T11:01:41.467Z,5.15
2022-08-22T11:03:53.633Z,4.38
2022-08-22T11:06:26.703Z,3.80
2022-08-22T11:09:03.571Z,3.70
2022-08-22T11:11:44.317Z,3.42
2022-08-22T11:14:22.138Z,3.67
2022-08-22T11:17:12.008Z,2.92
2022-08-22T11:19:54.529Z,3.60
2022-08-22T11:22:40.476Z,3.53
2022-08-22T11:25:14.407Z,3.80
2022-08-22T11:27:45.483Z,4.28
2022-08-22T11:30:18.514Z,3.33
2022-08-22T11:33:00.063Z,4.85
2022-08-22T11:35:34.985Z,6.28
2022-08-22T11:38:06.374Z,4.43
2022-08-22T11:40:57.440Z,4.78
2022-08-22T11:43:49.223Z,5.35
2022-08-22T11:46:23.736Z,6.25
2022-08-22T11:49:06.325Z,6.60
2022-08-22T11:51:52.138Z,7.38
2022-08-22T11:54:42.227Z,9.00
2022-08-22T11:57:29.929Z,7.63
2022-08-22T12:00:13.252Z,6.93
2022-08-22T12:02:41.441Z,7.43
2022-08-22T12:05:24.635Z,8.88
2022-08-22T12:08:02.133Z,7.30
2022-08-22T12:10:34.535Z,7.57
2022-08-22T12:13:08.361Z,7.80
2022-08-22T12:15:39.403Z,7.55
2022-08-22T12:18:21.725Z,7.20
2022-08-22T12:20:50.095Z,8.43
2022-08-22T12:23:48.948Z,8.15
2022-08-22T12:26:28.669Z,8.32
2022-08-22T12:29:02.282Z,10.48
2022-08-22T12:31:49.103Z,10.65
2022-08-22T12:34:20.616Z,9.88
2022-08-22T12:37:08.917Z,10.77
2022-08-22T12:39:57.123Z,10.82
2022-08-22T12:42:25.145Z,16.23
2022-08-22T12:44:55.741Z,16.10
2022-08-22T12:47:34.404Z,16.20
2022-08-22T12:50:28.935Z,15.07
2022-08-22T12:53:01.933Z,14.75
2022-08-22T12:55:37.451Z,11.75
2022-08-22T12:58:27.102Z,13.75
2022-08-22T13:01:02.803Z,19.02
2022-08-22T13:03:41.087Z,17.95
2022-08-22T13:06:27.420Z,18.30
2022-08-22T13:08:55.300Z,17.35
2022-08-22T13:11:23.851Z,25.13
2022-08-22T13:13:56.592Z,22.52
2022-08-22T13:16:26.233Z,22.40
2022-08-22T13:18:54.956Z,21.88
2022-08-22T13:21:24.849Z,16.98
2022-08-22T13:23:57.856Z,18.58
2022-08-22T13:26:34.037Z,20.42
2022-08-22T13:29:26.156Z,21.20
2022-08-22T13:32:00.466Z,18.80
2022-08-22T13:34:32.596Z,19.95
2022-08-22T13:37:07.611Z,17.33
2022-08-22T13:39:39.974Z,16.02
2022-08-22T13:42:14.304Z,17.63
2022-08-22T13:44:44.146Z,17.98
2022-08-22T13:47:16.458Z,17.70
2022-08-22T13:49:55.423Z,20.80
2022-08-22T13:52:30.036Z,16.55
2022-08-22T13:55:01.932Z,17.52
2022-08-22T13:57:59.330Z,15.68
2022-08-22T14:00:36.059Z,18.23
2022-08-22T14:03:16.552Z,16.15
2022-08-22T14:05:53.305Z,14.87
2022-08-22T14:08:23.118Z,14.43
2022-08-22T14:10:59.518Z,12.63
2022-08-22T14:13:44.138Z,13.77
2022-08-22T14:16:31.118Z,12.77
2022-08-22T14:19:06.249Z,12.43
2022-08-22T14:21:40.595Z,17.92
2022-08-22T14:24:18.952Z,14.32
2022-08-22T14:26:58.902Z,14.90
2022-08-22T14:29:31.903Z,13.20
2022-08-22T14:32:01.716Z,16.88
2022-08-22T14:34:30.670Z,14.55
2022-08-22T14:37:00.947Z,15.95
2022-08-22T14:39:36.247Z,16.45
2022-08-22T14:42:22.942Z,16.00
2022-08-22T14:44:59.305Z,19.70
2022-08-22T14:47:30.374Z,15.90
2022-08-22T14:50:31.320Z,15.23
2022-08-22T14:53:06.632Z,18.73
2022-08-22T14:55:36.626Z,21.77
2022-08-22T14:58:17.390Z,17.95
2022-08-22T15:00:55.622Z,17.13
2022-08-22T15:03:26.547Z,16.27
2022-08-22T15:06:00.484Z,19.10
2022-08-22T15:08:36.283Z,17.60
2022-08-22T15:11:09.508Z,17.85
2022-08-22T15:13:40.827Z,16.38
2022-08-22T15:16:16.920Z,22.20
2022-08-22T15:18:51.460Z,20.13
2022-08-22T15:21:27.933Z,15.70
2022-08-22T15:23:59.657Z,22.08
2022-08-22T15:26:30.755Z,18.65
2022-08-22T15:29:04.363Z,22.05
2022-08-22T15:31:32.463Z,19.25
2022-08-22T15:34:08.571Z,19.80
2022-08-22T15:36:56.784Z,19.30
2022-08-22T15:39:36.019Z,23.95
2022-08-22T15:42:06.364Z,21.63
2022-08-22T15:44:36.587Z,19.42
2022-08-22T15:47:27.617Z,18.85
2022-08-22T15:49:58.453Z,26.67
2022-08-22T15:52:29.078Z,24.13
2022-08-22T15:54:57.263Z,14.57
2022-08-22T15:57:38.929Z,20.50
2022-08-22T16:00:13.607Z,21.10
2022-08-22T16:03:00.479Z,22.30
2022-08-22T16:05:40.910Z,17.25
2022-08-22T16:08:17.325Z,24.02
2022-08-22T16:10:51.832Z,18.52
2022-08-22T16:13:29.403Z,16.98
2022-08-22T16:16:02.378Z,23.05
2022-08-22T16:18:44.891Z,48.47
2022-08-22T16:21:14.580Z,31.13
2022-08-22T16:23:51.380Z,20.52
2022-08-22T16:26:39.695Z,20.00
2022-08-22T16:29:27.274Z,28.00
2022-08-22T16:32:01.827Z,24.38
2022-08-22T16:34:39.188Z,36.10
2022-08-22T16:37:18.019Z,56.90
2022-08-22T16:40:05.945Z,20.20
2022-08-22T16:42:38.670Z,48.97
2022-08-22T16:45:12.973Z,24.63
2022-08-22T16:47:56.764Z,39.22
2022-08-22T16:50:26.288Z,19.17
2022-08-22T16:53:00.406Z,24.10
2022-08-22T16:55:28.061Z,19.02
2022-08-22T16:58:14.364Z,21.45
2022-08-22T17:00:57.892Z,16.10
2022-08-22T17:03:49.190Z,18.73
2022-08-22T17:06:23.144Z,19.27
2022-08-22T17:09:10.393Z,19.00
2022-08-22T17:11:56.616Z,17.42
2022-08-22T17:14:42.827Z,14.80
2022-08-22T17:17:34.819Z,17.35
2022-08-22T17:20:03.229Z,18.67
2022-08-22T17:22:30.878Z,22.38
2022-08-22T17:25:08.451Z,24.77
2022-08-22T17:27:40.658Z,19.38
2022-08-22T17:30:09.379Z,22.30
2022-08-22T17:32:59.007Z,17.33
2022-08-22T17:35:27.740Z,19.02
2022-08-22T17:38:01.726Z,21.90
2022-08-22T17:40:32.972Z,17.13
2022-08-22T17:43:13.960Z,19.92
2022-08-22T17:45:41.598Z,26.13
2022-08-22T17:48:15.083Z,19.20
2022-08-22T17:50:45.732Z,20.38
2022-08-22T17:53:16.056Z,19.83
2022-08-22T17:55:55.675Z,20.40
2022-08-22T17:58:37.736Z,20.33
2022-08-22T18:01:16.748Z,25.08
2022-08-22T18:03:51.109Z,27.65
2022-08-22T18:06:25.032Z,22.67
2022-08-22T18:11:59.133Z,23.80
2022-08-22T18:14:45.128Z,27.10
2022-08-22T18:17:19.142Z,26.48
2022-08-22T18:19:50.002Z,27.23
2022-08-22T18:22:25.242Z,23.77
2022-08-22T18:25:00.080Z,23.08
2022-08-22T18:27:40.607Z,22.50
2022-08-22T18:30:08.625Z,24.98
2022-08-22T18:32:56.588Z,21.02
2022-08-22T18:35:29.338Z,23.13
2022-08-22T18:38:00.564Z,28.00
2022-08-22T18:40:32.184Z,18.63
2022-08-22T18:43:13.343Z,18.60
2022-08-22T18:45:47.315Z,22.38
2022-08-22T18:48:22.784Z,16.08
2022-08-22T18:50:50.748Z,15.10
2022-08-22T18:53:37.778Z,15.65
2022-08-22T18:56:15.919Z,19.23
2022-08-22T18:59:05.150Z,20.42
2022-08-22T19:01:52.452Z,14.45
2022-08-22T19:04:26.351Z,15.73
2022-08-22T19:07:03.906Z,17.08
2022-08-22T19:09:32.196Z,17.83
2022-08-22T19:12:03.032Z,19.27
2022-08-22T19:14:43.154Z,17.53
2022-08-22T19:17:24.242Z,17.77
2022-08-22T19:20:25.974Z,14.43
2022-08-22T19:23:16.302Z,18.95
2022-08-22T19:26:13.397Z,18.05
2022-08-22T19:28:41.213Z,16.80
2022-08-22T19:31:22.460Z,12.00
2022-08-22T19:34:10.324Z,17.33
2022-08-22T19:36:38.154Z,15.23
2022-08-22T19:39:09.215Z,20.17
2022-08-22T19:41:41.630Z,16.13
2022-08-22T19:44:13.494Z,19.65
2022-08-22T19:46:42.347Z,14.77
2022-08-22T19:49:27.708Z,15.25
2022-08-22T19:52:07.103Z,15.30
2022-08-22T19:54:41.597Z,14.93
2022-08-22T19:57:13.868Z,14.35
2022-08-22T19:59:51.173Z,13.57
2022-08-22T20:02:22.064Z,12.68
2022-08-22T20:05:01.593Z,11.18
2022-08-22T20:07:36.814Z,12.95
2022-08-22T20:10:27.850Z,25.05
2022-08-22T20:15:27.387Z,19.05
2022-08-22T20:20:56.810Z,23.42
2022-08-22T20:23:28.397Z,36.50
2022-08-22T20:25:57.131Z,33.22
2022-08-22T20:28:40.553Z,51.80
2022-08-22T20:31:19.594Z,42.13
2022-08-22T20:33:47.759Z,39.97
2022-08-22T20:36:28.402Z,31.75
2022-08-22T20:39:08.096Z,47.92
2022-08-22T20:41:39.044Z,46.55
2022-08-22T20:44:25.588Z,29.73
2022-08-22T20:46:57.720Z,24.50
2022-08-22T20:49:25.873Z,20.25
2022-08-22T20:51:55.416Z,23.80
2022-08-22T20:54:25.077Z,27.42
2022-08-22T20:56:54.827Z,17.95
2022-08-22T20:59:48.783Z,27.52
2022-08-22T21:02:21.278Z,29.30
2022-08-22T21:04:48.891Z,21.35
2022-08-22T21:07:30.597Z,17.27
2022-08-22T21:10:37.162Z,16.80
2022-08-22T21:13:07.642Z,16.70
2022-08-22T21:15:38.721Z,14.60
2022-08-22T21:18:06.477Z,22.80
2022-08-22T21:20:36.389Z,22.80
2022-08-22T21:23:06.859Z,21.02
2022-08-22T21:25:47.643Z,23.92
2022-08-22T21:28:25.850Z,19.73
2022-08-22T21:30:53.540Z,18.83
2022-08-22T21:33:24.593Z,22.88
2022-08-22T21:35:56.856Z,18.58
2022-08-22T21:38:25.098Z,21.02
2022-08-22T21:40:53.242Z,18.25
2022-08-22T21:43:39.463Z,17.58
2022-08-22T21:46:11.519Z,17.15
2022-08-22T21:48:46.579Z,18.33
2022-08-22T21:51:25.037Z,12.20
2022-08-22T21:54:18.115Z,13.80
2022-08-22T21:56:48.172Z,13.27
2022-08-22T21:59:25.204Z,7.63
2022-08-22T22:01:55.445Z,9.90
2022-08-22T22:04:23.482Z,10.18
2022-08-22T22:06:51.133Z,7.43
2022-08-22T22:09:19.135Z,10.63
2022-08-22T22:11:46.927Z,7.15
2022-08-22T22:14:14.605Z,8.10
2022-08-22T22:16:42.700Z,7.18
2022-08-22T22:19:10.272Z,11.15
2022-08-22T22:21:38.624Z,10.68
2022-08-22T22:24:06.516Z,9.00
2022-08-22T22:26:34.242Z,9.63
2022-08-22T22:29:03.282Z,11.23
2022-08-22T22:31:31.670Z,15.55
2022-08-22T22:34:01.512Z,22.13
2022-08-22T22:36:29.299Z,20.67
2022-08-22T22:38:57.328Z,19.60
2022-08-22T22:41:26.007Z,18.27
2022-08-22T22:43:54.249Z,18.73
2022-08-22T22:46:22.982Z,19.58
2022-08-22T22:48:51.020Z,14.95
2022-08-22T22:51:18.616Z,14.52
2022-08-22T22:53:46.604Z,10.55
2022-08-22T22:56:34.081Z,25.83
2022-08-22T22:59:13.413Z,15.80
2022-08-22T23:02:01.654Z,14.52
2022-08-22T23:04:29.924Z,13.65
2022-08-22T23:06:57.693Z,16.75
2022-08-22T23:09:38.046Z,12.85
2022-08-22T23:12:06.939Z,14.82
2022-08-22T23:14:35.320Z,14.23
2022-08-22T23:17:03.220Z,15.55
2022-08-22T23:19:31.356Z,15.07
2022-08-22T23:21:59.764Z,14.02
2022-08-22T23:24:31.114Z,11.07
2022-08-22T23:26:59.647Z,15.85
2022-08-22T23:29:27.226Z,14.55
2022-08-22T23:31:57.078Z,12.98
2022-08-22T23:34:26.606Z,18.55
2022-08-22T23:36:55.678Z,18.08
2022-08-22T23:39:24.548Z,19.42
2022-08-22T23:41:53.321Z,21.85
2022-08-22T23:44:22.531Z,16.35
2022-08-22T23:46:50.419Z,22.73
2022-08-22T23:49:18.700Z,27.38
2022-08-22T23:51:47.098Z,24.90
2022-08-22T23:54:15.019Z,25.75
2022-08-22T23:56:44.183Z,22.48
2022-08-22T23:59:13.472Z,26.83
